createdAt,value
2018-07-14T00:02:01.297Z,2.50
2018-07-14T00:04:29.688Z,2.40
2018-07-14T00:06:57.915Z,2.60
2018-07-14T00:09:26.144Z,3.00
2018-07-14T00:11:54.326Z,3.20
2018-07-14T00:14:22.635Z,2.80
2018-07-14T00:16:50.893Z,2.90
2018-07-14T00:19:19.092Z,3.10
2018-07-14T00:21:47.298Z,2.97
2018-07-14T00:24:15.894Z,3.57
2018-07-14T00:26:44.141Z,3.13
2018-07-14T00:29:12.367Z,3.10
2018-07-14T00:31:40.532Z,3.60
2018-07-14T00:34:08.790Z,3.40
2018-07-14T00:36:37.060Z,3.60
2018-07-14T00:39:05.480Z,3.80
2018-07-14T00:41:33.667Z,3.60
2018-07-14T00:45:04.933Z,3.73
2018-07-14T00:47:33.130Z,3.63
2018-07-14T00:50:01.361Z,3.83
2018-07-14T00:52:29.526Z,3.70
2018-07-14T00:54:57.860Z,4.10
2018-07-14T00:57:26.034Z,3.73
2018-07-14T00:59:54.255Z,4.10
2018-07-14T01:02:22.581Z,3.90
2018-07-14T01:04:51.004Z,3.60
2018-07-14T01:07:19.167Z,4.00
2018-07-14T01:09:47.356Z,3.90
2018-07-14T01:12:15.592Z,3.80
2018-07-14T01:14:43.793Z,4.10
2018-07-14T01:17:11.972Z,4.60
2018-07-14T01:19:40.183Z,4.07
2018-07-14T01:22:08.464Z,4.20
2018-07-14T01:24:36.755Z,3.80
2018-07-14T01:27:04.949Z,4.43
2018-07-14T01:29:33.137Z,4.03
2018-07-14T01:32:01.327Z,4.90
2018-07-14T01:34:29.376Z,5.13
2018-07-14T01:36:57.548Z,5.00
2018-07-14T01:39:25.764Z,4.73
2018-07-14T01:41:53.747Z,4.60
2018-07-14T01:44:22.216Z,5.37
2018-07-14T01:46:50.393Z,5.37
2018-07-14T01:49:18.685Z,4.83
2018-07-14T01:51:46.927Z,4.70
2018-07-14T01:54:15.335Z,4.80
2018-07-14T01:56:43.544Z,5.30
2018-07-14T01:59:11.749Z,4.80
2018-07-14T02:01:39.684Z,5.20
2018-07-14T02:04:08.076Z,4.70
2018-07-14T02:06:36.293Z,4.60
2018-07-14T02:09:05.030Z,5.20
2018-07-14T02:11:33.325Z,5.17
2018-07-14T02:14:01.661Z,5.00
2018-07-14T02:16:29.881Z,4.10
2018-07-14T02:18:57.828Z,4.77
2018-07-14T02:21:26.049Z,5.40
2018-07-14T02:23:54.209Z,5.23
2018-07-14T02:26:22.579Z,5.13
2018-07-14T02:28:50.762Z,4.83
2018-07-14T02:31:18.992Z,4.83
2018-07-14T02:33:47.248Z,4.57
2018-07-14T02:36:15.598Z,4.70
2018-07-14T02:38:43.803Z,5.23
2018-07-14T02:41:12.006Z,5.13
2018-07-14T02:43:46.671Z,5.43
2018-07-14T02:46:14.961Z,5.23
2018-07-14T02:48:43.257Z,4.80
2018-07-14T02:51:11.515Z,5.50
2018-07-14T02:53:39.758Z,5.60
2018-07-14T02:56:07.881Z,6.07
2018-07-14T02:58:36.109Z,5.67
2018-07-14T03:01:04.432Z,5.30
2018-07-14T03:03:32.680Z,5.60
2018-07-14T03:06:01.048Z,5.73
2018-07-14T03:08:29.305Z,5.43
2018-07-14T03:10:57.506Z,5.03
2018-07-14T03:13:25.771Z,5.63
2018-07-14T03:15:54.086Z,5.27
2018-07-14T03:18:22.265Z,5.50
2018-07-14T03:20:51.687Z,5.40
2018-07-14T03:23:19.932Z,5.47
2018-07-14T03:25:48.178Z,5.10
2018-07-14T03:28:16.419Z,4.90
2018-07-14T03:30:44.795Z,5.60
2018-07-14T03:33:13.029Z,5.70
2018-07-14T03:35:41.289Z,5.87
2018-07-14T03:41:10.184Z,5.40
2018-07-14T03:43:38.463Z,5.53
2018-07-14T03:46:06.703Z,5.13
2018-07-14T03:48:34.962Z,5.70
2018-07-14T03:51:03.157Z,5.57
2018-07-14T03:53:31.357Z,5.20
2018-07-14T03:55:59.357Z,5.70
2018-07-14T03:58:27.552Z,5.53
2018-07-14T04:00:55.735Z,5.53
2018-07-14T04:03:24.639Z,4.83
2018-07-14T04:05:52.999Z,5.50
2018-07-14T04:08:21.186Z,5.23
2018-07-14T04:10:49.422Z,5.27
2018-07-14T04:13:17.646Z,5.57
2018-07-14T04:15:46.125Z,5.83
2018-07-14T04:18:14.390Z,5.37
2018-07-14T04:20:42.630Z,5.20
2018-07-14T04:23:10.839Z,4.93
2018-07-14T04:25:39.230Z,5.27
2018-07-14T04:28:07.451Z,4.77
2018-07-14T04:30:35.640Z,5.13
2018-07-14T04:33:03.889Z,4.70
2018-07-14T04:35:32.308Z,5.20
2018-07-14T04:38:00.489Z,5.47
2018-07-14T04:40:28.764Z,4.80
2018-07-14T04:42:56.970Z,5.07
2018-07-14T04:45:25.235Z,4.50
2018-07-14T04:47:53.431Z,4.43
2018-07-14T04:50:21.650Z,5.23
2018-07-14T04:52:49.912Z,4.97
2018-07-14T04:55:18.308Z,5.97
2018-07-14T04:57:46.522Z,5.10
2018-07-14T05:00:14.743Z,5.57
2018-07-14T05:02:42.990Z,5.37
2018-07-14T05:05:11.373Z,5.37
2018-07-14T05:07:39.586Z,5.37
2018-07-14T05:10:07.880Z,5.03
2018-07-14T05:12:35.819Z,5.60
2018-07-14T05:15:04.270Z,5.37
2018-07-14T05:17:32.433Z,5.30
2018-07-14T05:20:00.680Z,4.97
2018-07-14T05:22:28.899Z,4.57
2018-07-14T05:24:58.245Z,4.50
2018-07-14T05:27:26.459Z,5.10
2018-07-14T05:29:54.742Z,4.17
2018-07-14T05:32:23.119Z,5.20
2018-07-14T05:34:52.416Z,4.60
2018-07-14T05:37:20.612Z,4.40
2018-07-14T05:39:48.908Z,4.40
2018-07-14T05:42:17.297Z,4.10
2018-07-14T05:44:45.723Z,4.90
2018-07-14T05:47:13.974Z,4.27
2018-07-14T05:49:42.165Z,4.27
2018-07-14T05:52:10.540Z,4.80
2018-07-14T05:54:38.727Z,4.80
2018-07-14T05:57:06.946Z,4.87
2018-07-14T05:59:35.149Z,4.33
2018-07-14T06:02:03.370Z,4.03
2018-07-14T06:04:31.664Z,3.30
2018-07-14T06:06:59.982Z,3.80
2018-07-14T06:09:28.248Z,3.50
2018-07-14T06:11:56.442Z,3.53
2018-07-14T06:14:24.736Z,3.50
2018-07-14T06:16:53.048Z,5.60
2018-07-14T06:19:21.443Z,4.00
2018-07-14T06:21:49.659Z,5.03
2018-07-14T06:24:18.033Z,5.13
2018-07-14T06:26:47.261Z,5.37
2018-07-14T06:29:15.464Z,5.00
2018-07-14T06:31:43.654Z,4.50
2018-07-14T06:34:13.101Z,4.40
2018-07-14T06:36:41.332Z,4.40
2018-07-14T06:39:09.711Z,2.80
2018-07-14T06:41:37.985Z,3.57
2018-07-14T06:44:06.303Z,3.73
2018-07-14T06:46:34.541Z,3.80
2018-07-14T06:49:02.855Z,4.10
2018-07-14T06:51:31.100Z,3.73
2018-07-14T06:53:59.281Z,4.00
2018-07-14T06:56:27.517Z,4.33
2018-07-14T06:58:55.779Z,3.30
2018-07-14T07:01:24.708Z,3.00
2018-07-14T07:03:52.961Z,2.27
2018-07-14T07:06:21.280Z,2.10
2018-07-14T07:08:49.593Z,2.20
2018-07-14T07:11:17.881Z,2.07
2018-07-14T07:13:52.591Z,2.07
2018-07-14T07:16:20.771Z,1.90
2018-07-14T07:18:48.748Z,2.37
2018-07-14T07:21:17.055Z,2.40
2018-07-14T07:23:45.206Z,2.07
2018-07-14T07:26:13.515Z,2.20
2018-07-14T07:28:41.776Z,2.20
2018-07-14T07:31:09.980Z,1.90
2018-07-14T07:33:38.174Z,1.77
2018-07-14T07:36:06.432Z,1.73
2018-07-14T07:38:34.706Z,2.00
2018-07-14T07:41:02.962Z,2.00
2018-07-14T07:43:31.132Z,2.00
2018-07-14T07:46:00.666Z,2.00
2018-07-14T07:48:28.896Z,1.80
2018-07-14T07:50:57.139Z,1.87
2018-07-14T07:53:25.323Z,1.67
2018-07-14T07:55:53.632Z,1.70
2018-07-14T07:58:21.904Z,1.73
2018-07-14T08:00:50.128Z,1.87
2018-07-14T08:03:18.307Z,2.10
2018-07-14T08:05:46.562Z,1.97
2018-07-14T08:08:14.767Z,1.90
2018-07-14T08:10:42.769Z,1.93
2018-07-14T08:13:10.963Z,2.07
2018-07-14T08:15:39.245Z,1.63
2018-07-14T08:18:07.512Z,1.80
2018-07-14T08:20:35.816Z,1.90
2018-07-14T08:23:04.118Z,1.83
2018-07-14T08:25:32.331Z,1.87
2018-07-14T08:28:00.587Z,1.90
2018-07-14T08:30:28.888Z,2.00
2018-07-14T08:32:57.164Z,2.23
2018-07-14T08:35:25.445Z,2.30
2018-07-14T08:37:53.652Z,1.90
2018-07-14T08:40:21.829Z,2.03
2018-07-14T08:42:50.112Z,1.97
2018-07-14T08:45:18.247Z,2.00
2018-07-14T08:47:46.425Z,2.60
2018-07-14T08:50:14.639Z,2.45
2018-07-14T08:52:42.846Z,2.00
2018-07-14T08:55:11.287Z,1.80
2018-07-14T08:57:39.498Z,2.13
2018-07-14T09:00:11.687Z,2.40
2018-07-14T09:02:39.909Z,2.10
2018-07-14T09:05:08.339Z,1.73
2018-07-14T09:07:36.390Z,1.60
2018-07-14T09:10:05.015Z,2.07
2018-07-14T09:12:33.254Z,2.03
2018-07-14T09:15:01.593Z,1.93
2018-07-14T09:17:29.873Z,13.83
2018-07-14T09:19:58.084Z,2.00
2018-07-14T09:22:26.319Z,1.77
2018-07-14T09:24:54.630Z,2.00
2018-07-14T09:27:22.823Z,7.80
2018-07-14T09:29:51.071Z,2.20
2018-07-14T09:32:19.353Z,2.10
2018-07-14T09:34:47.789Z,2.00
2018-07-14T09:37:16.027Z,1.90
2018-07-14T09:39:44.272Z,1.60
2018-07-14T09:42:12.587Z,1.90
2018-07-14T09:44:41.070Z,1.83
2018-07-14T09:47:09.407Z,1.67
2018-07-14T09:49:37.688Z,1.50
2018-07-14T09:52:06.081Z,1.70
2018-07-14T09:54:35.478Z,1.83
2018-07-14T09:57:03.754Z,1.67
2018-07-14T09:59:32.065Z,1.50
2018-07-14T10:02:00.333Z,1.50
2018-07-14T10:04:28.665Z,1.30
2018-07-14T10:06:56.963Z,1.50
2018-07-14T10:09:25.190Z,1.70
2018-07-14T10:11:53.518Z,1.40
2018-07-14T10:14:21.824Z,1.63
2018-07-14T10:16:50.122Z,1.40
2018-07-14T10:19:18.384Z,1.60
2018-07-14T10:21:46.776Z,1.30
2018-07-14T10:24:15.259Z,1.30
2018-07-14T10:26:43.468Z,1.40
2018-07-14T10:29:11.653Z,1.40
2018-07-14T10:31:39.848Z,1.50
2018-07-14T10:34:08.197Z,1.30
2018-07-14T10:36:36.532Z,1.30
2018-07-14T10:39:06.296Z,1.30
2018-07-14T10:41:34.538Z,1.47
2018-07-14T10:44:03.055Z,1.47
2018-07-14T10:46:31.244Z,1.23
2018-07-14T10:48:59.473Z,1.47
2018-07-14T10:51:27.753Z,1.27
2018-07-14T10:53:56.382Z,1.33
2018-07-14T10:56:24.636Z,1.50
2018-07-14T10:58:52.920Z,1.50
2018-07-14T11:01:20.886Z,1.40
2018-07-14T11:03:49.072Z,1.10
2018-07-14T11:06:17.463Z,1.30
2018-07-14T11:08:45.675Z,1.70
2018-07-14T11:11:13.912Z,1.90
2018-07-14T11:13:42.060Z,1.43
2018-07-14T11:16:10.228Z,1.20
2018-07-14T11:18:38.464Z,1.50
2018-07-14T11:21:06.828Z,1.37
2018-07-14T11:23:35.125Z,1.70
2018-07-14T11:26:03.395Z,1.50
2018-07-14T11:28:31.688Z,1.83
2018-07-14T11:31:00.230Z,1.60
2018-07-14T11:33:28.564Z,1.63
2018-07-14T11:35:57.952Z,1.77
2018-07-14T11:38:26.200Z,1.70
2018-07-14T11:40:54.693Z,1.70
2018-07-14T11:43:22.971Z,1.50
2018-07-14T11:45:51.243Z,2.00
2018-07-14T11:48:19.506Z,1.90
2018-07-14T11:53:47.919Z,1.50
2018-07-14T11:56:16.387Z,1.93
2018-07-14T11:58:44.620Z,1.53
2018-07-14T12:01:12.859Z,1.80
2018-07-14T12:03:41.248Z,2.87
2018-07-14T12:06:10.714Z,1.70
2018-07-14T12:08:38.931Z,1.63
2018-07-14T12:11:07.712Z,1.80
2018-07-14T12:13:35.919Z,1.60
2018-07-14T12:16:04.341Z,1.87
2018-07-14T12:18:32.580Z,1.90
2018-07-14T12:21:00.864Z,1.73
2018-07-14T12:23:29.064Z,1.90
2018-07-14T12:25:57.543Z,1.90
2018-07-14T12:28:25.932Z,2.37
2018-07-14T12:30:54.338Z,1.50
2018-07-14T12:33:22.573Z,1.90
2018-07-14T12:35:50.956Z,1.70
2018-07-14T12:38:19.166Z,1.87
2018-07-14T12:40:47.542Z,1.60
2018-07-14T12:43:15.866Z,1.93
2018-07-14T12:45:44.311Z,1.63
2018-07-14T12:48:12.709Z,1.80
2018-07-14T12:50:40.994Z,1.80
2018-07-14T12:53:09.235Z,1.30
2018-07-14T12:55:37.592Z,1.40
2018-07-14T12:58:05.903Z,1.77
2018-07-14T13:00:34.121Z,1.60
2018-07-14T13:03:02.351Z,2.00
2018-07-14T13:05:30.675Z,1.60
2018-07-14T13:07:58.957Z,2.10
2018-07-14T13:10:27.166Z,1.77
2018-07-14T13:12:55.443Z,1.73
2018-07-14T13:16:27.587Z,1.50
2018-07-14T13:18:55.821Z,1.70
2018-07-14T13:21:24.209Z,1.50
2018-07-14T13:23:52.432Z,1.40
2018-07-14T13:26:20.614Z,1.47
2018-07-14T13:28:48.882Z,1.80
2018-07-14T13:31:17.201Z,1.67
2018-07-14T13:33:45.419Z,1.53
2018-07-14T13:36:13.691Z,1.60
2018-07-14T13:38:51.263Z,2.13
2018-07-14T13:41:10.276Z,1.10
2018-07-14T13:43:38.508Z,1.57
2018-07-14T13:46:06.752Z,1.47
2018-07-14T13:48:35.304Z,1.70
2018-07-14T13:51:03.691Z,1.50
2018-07-14T13:53:31.924Z,1.60
2018-07-14T13:56:00.985Z,1.73
2018-07-14T13:58:29.271Z,1.60
2018-07-14T14:00:57.593Z,1.27
2018-07-14T14:03:26.819Z,1.57
2018-07-14T14:05:55.263Z,1.50
2018-07-14T14:08:23.501Z,1.33
2018-07-14T14:10:51.667Z,1.40
2018-07-14T14:13:19.872Z,1.50
2018-07-14T14:15:49.283Z,2.10
2018-07-14T14:18:17.506Z,1.40
2018-07-14T14:20:45.702Z,1.53
2018-07-14T14:23:13.877Z,1.80
2018-07-14T14:25:42.162Z,1.63
2018-07-14T14:28:10.222Z,1.70
2018-07-14T14:30:38.463Z,1.50
2018-07-14T14:33:06.950Z,2.07
2018-07-14T14:35:35.121Z,1.63
2018-07-14T14:38:03.435Z,1.87
2018-07-14T14:40:31.786Z,1.80
2018-07-14T14:43:00.029Z,1.60
2018-07-14T14:45:28.398Z,1.70
2018-07-14T14:47:56.680Z,1.50
2018-07-14T14:50:24.866Z,1.60
2018-07-14T14:52:53.085Z,1.70
2018-07-14T14:55:22.434Z,1.70
2018-07-14T14:57:50.699Z,1.77
2018-07-14T15:00:18.948Z,1.93
2018-07-14T15:02:47.268Z,1.60
2018-07-14T15:05:15.655Z,1.83
2018-07-14T15:07:43.858Z,1.63
2018-07-14T15:10:12.121Z,1.37
2018-07-14T15:12:40.326Z,1.67
2018-07-14T15:15:08.763Z,1.70
2018-07-14T15:17:37.098Z,1.80
2018-07-14T15:20:05.370Z,1.70
2018-07-14T15:22:33.588Z,1.60
2018-07-14T15:25:02.406Z,1.50
2018-07-14T15:27:30.594Z,1.73
2018-07-14T15:29:58.852Z,1.33
2018-07-14T15:32:27.104Z,1.30
2018-07-14T15:34:55.332Z,1.33
2018-07-14T15:37:23.788Z,1.60
2018-07-14T15:39:51.791Z,1.27
2018-07-14T15:42:20.024Z,1.50
2018-07-14T15:44:48.404Z,1.63
2018-07-14T15:47:16.535Z,1.40
2018-07-14T15:49:44.932Z,1.60
2018-07-14T15:52:13.154Z,1.57
2018-07-14T15:54:41.611Z,1.53
2018-07-14T15:57:09.783Z,1.60
2018-07-14T15:59:37.786Z,2.07
2018-07-14T16:02:06.069Z,1.67
2018-07-14T16:04:34.472Z,2.10
2018-07-14T16:09:37.360Z,1.70
2018-07-14T16:12:06.735Z,1.47
2018-07-14T16:14:35.134Z,1.40
2018-07-14T16:17:03.565Z,1.50
2018-07-14T16:19:31.807Z,1.20
2018-07-14T16:22:00.175Z,1.53
2018-07-14T16:24:28.442Z,1.10
2018-07-14T16:26:56.669Z,1.57
2018-07-14T16:29:24.918Z,1.37
2018-07-14T16:31:53.170Z,1.20
2018-07-14T16:34:21.633Z,1.30
2018-07-14T16:36:49.852Z,1.40
2018-07-14T16:39:18.037Z,1.30
2018-07-14T16:41:46.228Z,1.50
2018-07-14T16:44:15.486Z,1.47
2018-07-14T16:46:43.761Z,1.30
2018-07-14T16:49:11.987Z,1.30
2018-07-14T16:51:40.226Z,1.17
2018-07-14T16:54:08.598Z,1.20
2018-07-14T16:56:36.932Z,1.33
2018-07-14T16:59:05.210Z,1.60
2018-07-14T17:01:33.411Z,1.20
2018-07-14T17:04:01.608Z,1.50
2018-07-14T17:06:29.625Z,1.77
2018-07-14T17:08:57.933Z,1.50
2018-07-14T17:11:26.096Z,1.50
2018-07-14T17:13:54.397Z,1.70
2018-07-14T17:16:22.481Z,1.50
2018-07-14T17:18:50.746Z,1.57
2018-07-14T17:21:18.988Z,1.40
2018-07-14T17:23:47.228Z,1.50
2018-07-14T17:26:15.641Z,1.70
2018-07-14T17:28:43.840Z,1.70
2018-07-14T17:31:12.035Z,1.83
2018-07-14T17:33:41.044Z,1.60
2018-07-14T17:36:09.444Z,1.70
2018-07-14T17:38:37.638Z,1.67
2018-07-14T17:41:05.846Z,1.60
2018-07-14T17:43:33.999Z,1.80
2018-07-14T17:46:02.308Z,1.80
2018-07-14T17:48:33.544Z,1.90
2018-07-14T17:51:01.732Z,2.20
2018-07-14T17:53:29.983Z,1.70
2018-07-14T17:55:58.307Z,1.70
2018-07-14T17:58:26.598Z,1.60
2018-07-14T18:00:54.931Z,1.60
2018-07-14T18:03:23.223Z,1.80
2018-07-14T18:05:51.695Z,1.90
2018-07-14T18:08:19.935Z,1.63
2018-07-14T18:10:48.349Z,1.70
2018-07-14T18:13:16.490Z,1.73
2018-07-14T18:15:44.690Z,1.80
2018-07-14T18:18:12.865Z,2.00
2018-07-14T18:20:41.086Z,1.67
2018-07-14T18:23:09.279Z,1.70
2018-07-14T18:25:37.310Z,1.60
2018-07-14T18:28:05.507Z,1.60
2018-07-14T18:30:33.659Z,1.37
2018-07-14T18:33:01.858Z,1.70
2018-07-14T18:35:30.050Z,1.77
2018-07-14T18:37:58.227Z,1.50
2018-07-14T18:40:26.563Z,1.53
2018-07-14T18:42:54.736Z,1.63
2018-07-14T18:45:25.027Z,1.60
2018-07-14T18:47:53.226Z,1.50
2018-07-14T18:50:21.860Z,1.73
2018-07-14T18:52:50.113Z,1.70
2018-07-14T18:55:18.350Z,1.43
2018-07-14T18:57:46.535Z,1.60
2018-07-14T19:00:14.734Z,1.53
2018-07-14T19:02:42.971Z,1.43
2018-07-14T19:05:10.997Z,1.77
2018-07-14T19:07:39.210Z,1.60
2018-07-14T19:10:07.405Z,1.70
2018-07-14T19:12:35.673Z,1.57
2018-07-14T19:15:04.213Z,1.40
2018-07-14T19:17:32.878Z,1.60
2018-07-14T19:20:01.090Z,1.63
2018-07-14T19:22:29.688Z,1.30
2018-07-14T19:24:58.745Z,1.53
2018-07-14T19:27:27.408Z,1.40
2018-07-14T19:29:56.037Z,1.40
2018-07-14T19:32:24.481Z,1.43
2018-07-14T19:34:52.771Z,1.50
2018-07-14T19:37:20.958Z,1.53
2018-07-14T19:39:49.188Z,1.30
2018-07-14T19:42:17.393Z,1.25
2018-07-14T19:44:45.638Z,1.37
2018-07-14T19:47:13.902Z,1.40
2018-07-14T19:49:42.133Z,1.40
2018-07-14T19:52:10.475Z,1.50
2018-07-14T19:54:38.847Z,1.50
2018-07-14T19:57:07.093Z,1.50
2018-07-14T19:59:35.398Z,1.20
2018-07-14T20:02:04.057Z,1.40
2018-07-14T20:04:32.532Z,1.70
2018-07-14T20:07:00.811Z,1.60
2018-07-14T20:09:29.009Z,1.40
2018-07-14T20:11:57.277Z,1.30
2018-07-14T20:14:25.603Z,4.07
2018-07-14T20:16:53.850Z,2.07
2018-07-14T20:19:22.071Z,1.53
2018-07-14T20:21:50.277Z,1.33
2018-07-14T20:24:18.532Z,1.30
2018-07-14T20:26:46.722Z,1.47
2018-07-14T20:29:14.940Z,1.33
2018-07-14T20:31:43.237Z,1.50
2018-07-14T20:34:11.698Z,1.40
2018-07-14T20:36:39.956Z,1.47
2018-07-14T20:39:08.250Z,1.60
2018-07-14T20:41:36.653Z,1.20
2018-07-14T20:44:05.099Z,1.10
2018-07-14T20:46:33.361Z,1.40
2018-07-14T20:49:01.595Z,1.27
2018-07-14T20:51:29.830Z,1.70
2018-07-14T20:53:58.219Z,1.30
2018-07-14T20:56:26.415Z,1.10
2018-07-14T20:58:54.774Z,1.20
2018-07-14T21:01:22.947Z,1.40
2018-07-14T21:03:51.151Z,1.30
2018-07-14T21:06:19.388Z,1.20
2018-07-14T21:08:47.604Z,1.20
2018-07-14T21:11:15.829Z,1.10
2018-07-14T21:13:44.002Z,1.43
2018-07-14T21:16:12.997Z,1.20
2018-07-14T21:18:41.283Z,1.33
2018-07-14T21:21:09.667Z,0.90
2018-07-14T21:23:37.874Z,1.20
2018-07-14T21:26:06.287Z,1.30
2018-07-14T21:28:34.443Z,0.90
2018-07-14T21:31:02.736Z,1.10
2018-07-14T21:33:31.142Z,1.00
2018-07-14T21:35:59.561Z,0.90
2018-07-14T21:38:27.772Z,0.90
2018-07-14T21:40:55.947Z,1.00
2018-07-14T21:43:24.136Z,1.13
2018-07-14T21:45:52.478Z,1.10
2018-07-14T21:48:20.670Z,1.07
2018-07-14T21:50:48.915Z,1.00
2018-07-14T21:53:17.106Z,1.13
2018-07-14T21:55:45.550Z,1.00
2018-07-14T21:58:13.723Z,0.70
2018-07-14T22:00:47.322Z,0.90
2018-07-14T22:03:15.584Z,1.00
2018-07-14T22:05:43.924Z,0.97
2018-07-14T22:08:12.124Z,0.83
2018-07-14T22:10:40.361Z,0.90
2018-07-14T22:13:08.566Z,1.20
2018-07-14T22:15:36.843Z,1.10
2018-07-14T22:21:05.783Z,1.13
2018-07-14T22:23:34.101Z,1.13
2018-07-14T22:26:02.344Z,1.20
2018-07-14T22:28:30.579Z,1.10
2018-07-14T22:30:58.795Z,1.00
2018-07-14T22:33:27.022Z,1.20
2018-07-14T22:35:55.391Z,1.00
2018-07-14T22:38:23.588Z,1.03
2018-07-14T22:40:51.821Z,0.97
2018-07-14T22:43:20.027Z,2.07
2018-07-14T22:45:48.280Z,3.87
2018-07-14T22:48:16.469Z,2.87
2018-07-14T22:50:44.676Z,1.67
2018-07-14T22:53:12.885Z,1.00
2018-07-14T22:55:41.208Z,0.83
2018-07-14T22:58:09.466Z,0.90
2018-07-14T23:00:37.641Z,2.00
2018-07-14T23:03:06.116Z,1.10
2018-07-14T23:05:34.533Z,1.13
2018-07-14T23:08:02.806Z,1.27
2018-07-14T23:10:31.029Z,1.20
2018-07-14T23:12:59.228Z,0.80
2018-07-14T23:15:27.596Z,1.03
2018-07-14T23:17:56.626Z,1.00
2018-07-14T23:20:24.822Z,1.00
2018-07-14T23:22:53.048Z,1.00
2018-07-14T23:25:21.386Z,1.37
2018-07-14T23:27:49.601Z,1.00
2018-07-14T23:30:17.838Z,1.20
2018-07-14T23:32:46.017Z,1.13
2018-07-14T23:35:14.253Z,1.17
2018-07-14T23:37:42.476Z,1.03
2018-07-14T23:40:10.789Z,1.10
2018-07-14T23:42:39.017Z,1.03
2018-07-14T23:45:07.973Z,1.37
2018-07-14T23:47:36.146Z,0.97
2018-07-14T23:50:04.508Z,1.00
2018-07-14T23:52:32.682Z,1.10
2018-07-14T23:55:01.029Z,1.10
2018-07-14T23:57:29.231Z,1.03
